sensor_id;sensor_type;location;lat;lon;timestamp;P1;durP1;ratioP1;P2;durP2;ratioP2
75087;SDS011;63664;44.868;40.600;2022-10-31T00:00:53;1.98;;;1.58;;
75087;SDS011;63664;44.868;40.600;2022-10-31T00:03:19;2.45;;;1.95;;
75087;SDS011;63664;44.868;40.600;2022-10-31T00:05:47;4.57;;;1.73;;
75087;SDS011;63664;44.868;40.600;2022-10-31T00:08:15;4.18;;;1.80;;
75087;SDS011;63664;44.868;40.600;2022-10-31T00:10:43;2.05;;;1.58;;
75087;SDS011;63664;44.868;40.600;2022-10-31T00:13:11;4.80;;;1.50;;
75087;SDS011;63664;44.868;40.600;2022-10-31T00:15:40;4.35;;;1.50;;
75087;SDS011;63664;44.868;40.600;2022-10-31T00:18:06;2.15;;;1.45;;
75087;SDS011;63664;44.868;40.600;2022-10-31T00:20:34;5.95;;;1.60;;
75087;SDS011;63664;44.868;40.600;2022-10-31T00:23:01;3.45;;;1.42;;
75087;SDS011;63664;44.868;40.600;2022-10-31T00:25:28;3.00;;;1.60;;
75087;SDS011;63664;44.868;40.600;2022-10-31T00:27:59;3.85;;;1.77;;
75087;SDS011;63664;44.868;40.600;2022-10-31T00:30:25;1.80;;;1.48;;
75087;SDS011;63664;44.868;40.600;2022-10-31T00:32:52;2.35;;;1.48;;
75087;SDS011;63664;44.868;40.600;2022-10-31T00:35:18;2.78;;;1.52;;
75087;SDS011;63664;44.868;40.600;2022-10-31T00:37:44;2.42;;;1.48;;
75087;SDS011;63664;44.868;40.600;2022-10-31T00:40:11;2.97;;;1.38;;
75087;SDS011;63664;44.868;40.600;2022-10-31T00:42:38;2.20;;;1.40;;
75087;SDS011;63664;44.868;40.600;2022-10-31T00:45:08;1.90;;;1.30;;
75087;SDS011;63664;44.868;40.600;2022-10-31T00:47:35;2.75;;;1.33;;
75087;SDS011;63664;44.868;40.600;2022-10-31T00:50:02;1.85;;;1.40;;
75087;SDS011;63664;44.868;40.600;2022-10-31T00:52:30;3.30;;;1.63;;
75087;SDS011;63664;44.868;40.600;2022-10-31T00:54:56;4.05;;;1.67;;
75087;SDS011;63664;44.868;40.600;2022-10-31T00:57:23;2.13;;;1.63;;
75087;SDS011;63664;44.868;40.600;2022-10-31T00:59:49;3.53;;;1.40;;
75087;SDS011;63664;44.868;40.600;2022-10-31T01:02:18;3.13;;;1.33;;
75087;SDS011;63664;44.868;40.600;2022-10-31T01:04:44;1.40;;;1.20;;
75087;SDS011;63664;44.868;40.600;2022-10-31T01:07:12;2.00;;;1.50;;
75087;SDS011;63664;44.868;40.600;2022-10-31T01:09:39;5.13;;;1.27;;
75087;SDS011;63664;44.868;40.600;2022-10-31T01:12:05;2.55;;;1.55;;
75087;SDS011;63664;44.868;40.600;2022-10-31T01:14:33;2.22;;;1.17;;
75087;SDS011;63664;44.868;40.600;2022-10-31T01:16:59;2.10;;;1.35;;
75087;SDS011;63664;44.868;40.600;2022-10-31T01:19:26;4.32;;;1.33;;
75087;SDS011;63664;44.868;40.600;2022-10-31T01:24:27;1.83;;;1.40;;
75087;SDS011;63664;44.868;40.600;2022-10-31T01:26:53;2.13;;;1.42;;
75087;SDS011;63664;44.868;40.600;2022-10-31T01:29:20;1.75;;;1.25;;
75087;SDS011;63664;44.868;40.600;2022-10-31T01:31:46;3.35;;;1.50;;
75087;SDS011;63664;44.868;40.600;2022-10-31T01:34:14;2.33;;;1.17;;
75087;SDS011;63664;44.868;40.600;2022-10-31T01:36:42;1.67;;;1.10;;
75087;SDS011;63664;44.868;40.600;2022-10-31T01:39:14;2.17;;;1.05;;
75087;SDS011;63664;44.868;40.600;2022-10-31T01:41:46;2.47;;;1.25;;
75087;SDS011;63664;44.868;40.600;2022-10-31T01:46:45;2.33;;;1.10;;
75087;SDS011;63664;44.868;40.600;2022-10-31T01:49:34;1.98;;;1.33;;
75087;SDS011;63664;44.868;40.600;2022-10-31T01:52:12;1.88;;;1.27;;
75087;SDS011;63664;44.868;40.600;2022-10-31T01:54:48;2.38;;;0.98;;
75087;SDS011;63664;44.868;40.600;2022-10-31T01:57:23;1.27;;;0.95;;
75087;SDS011;63664;44.868;40.600;2022-10-31T01:59:51;2.08;;;1.30;;
75087;SDS011;63664;44.868;40.600;2022-10-31T02:02:21;1.20;;;0.82;;
75087;SDS011;63664;44.868;40.600;2022-10-31T02:04:48;1.58;;;1.10;;
75087;SDS011;63664;44.868;40.600;2022-10-31T02:08:18;1.50;;;0.98;;
75087;SDS011;63664;44.868;40.600;2022-10-31T02:10:26;1.10;;;0.70;;
75087;SDS011;63664;44.868;40.600;2022-10-31T02:12:55;2.45;;;1.10;;
75087;SDS011;63664;44.868;40.600;2022-10-31T02:15:24;1.25;;;1.05;;
75087;SDS011;63664;44.868;40.600;2022-10-31T02:17:51;1.73;;;1.00;;
75087;SDS011;63664;44.868;40.600;2022-10-31T02:20:20;1.27;;;1.10;;
75087;SDS011;63664;44.868;40.600;2022-10-31T02:22:59;2.75;;;1.00;;
75087;SDS011;63664;44.868;40.600;2022-10-31T02:33:59;1.65;;;0.80;;
75087;SDS011;63664;44.868;40.600;2022-10-31T02:36:48;1.38;;;0.90;;
75087;SDS011;63664;44.868;40.600;2022-10-31T02:39:50;1.70;;;1.00;;
75087;SDS011;63664;44.868;40.600;2022-10-31T02:42:46;1.65;;;1.13;;
75087;SDS011;63664;44.868;40.600;2022-10-31T02:45:30;1.00;;;0.80;;
75087;SDS011;63664;44.868;40.600;2022-10-31T02:47:59;2.22;;;1.00;;
75087;SDS011;63664;44.868;40.600;2022-10-31T02:50:34;1.33;;;0.90;;
75087;SDS011;63664;44.868;40.600;2022-10-31T02:53:09;1.83;;;0.90;;
75087;SDS011;63664;44.868;40.600;2022-10-31T02:58:06;1.20;;;0.80;;
75087;SDS011;63664;44.868;40.600;2022-10-31T03:03:13;2.38;;;0.73;;
75087;SDS011;63664;44.868;40.600;2022-10-31T03:06:12;1.10;;;0.82;;
75087;SDS011;63664;44.868;40.600;2022-10-31T03:08:55;1.50;;;0.90;;
75087;SDS011;63664;44.868;40.600;2022-10-31T03:11:31;2.25;;;1.15;;
75087;SDS011;63664;44.868;40.600;2022-10-31T03:16:48;2.00;;;1.15;;
75087;SDS011;63664;44.868;40.600;2022-10-31T03:19:18;1.13;;;0.80;;
75087;SDS011;63664;44.868;40.600;2022-10-31T03:21:46;1.83;;;0.90;;
75087;SDS011;63664;44.868;40.600;2022-10-31T03:26:43;1.27;;;0.73;;
75087;SDS011;63664;44.868;40.600;2022-10-31T03:29:15;1.70;;;1.00;;
75087;SDS011;63664;44.868;40.600;2022-10-31T03:31:53;1.50;;;0.88;;
75087;SDS011;63664;44.868;40.600;2022-10-31T03:34:23;1.33;;;1.00;;
75087;SDS011;63664;44.868;40.600;2022-10-31T03:36:51;2.70;;;1.20;;
75087;SDS011;63664;44.868;40.600;2022-10-31T03:39:21;1.80;;;1.20;;
75087;SDS011;63664;44.868;40.600;2022-10-31T03:41:53;2.20;;;1.35;;
75087;SDS011;63664;44.868;40.600;2022-10-31T03:44:28;3.28;;;1.58;;
75087;SDS011;63664;44.868;40.600;2022-10-31T03:47:01;2.75;;;1.70;;
75087;SDS011;63664;44.868;40.600;2022-10-31T03:49:29;3.22;;;1.70;;
75087;SDS011;63664;44.868;40.600;2022-10-31T03:57:34;5.25;;;2.80;;
75087;SDS011;63664;44.868;40.600;2022-10-31T04:03:17;2.90;;;2.42;;
75087;SDS011;63664;44.868;40.600;2022-10-31T04:05:54;5.85;;;2.22;;
75087;SDS011;63664;44.868;40.600;2022-10-31T04:08:26;2.45;;;1.73;;
75087;SDS011;63664;44.868;40.600;2022-10-31T04:10:56;2.10;;;1.80;;
75087;SDS011;63664;44.868;40.600;2022-10-31T04:13:29;2.92;;;1.70;;
75087;SDS011;63664;44.868;40.600;2022-10-31T04:16:07;2.67;;;1.60;;
75087;SDS011;63664;44.868;40.600;2022-10-31T04:18:34;2.20;;;1.35;;
75087;SDS011;63664;44.868;40.600;2022-10-31T04:21:03;2.10;;;1.30;;
75087;SDS011;63664;44.868;40.600;2022-10-31T04:23:31;2.05;;;1.25;;
75087;SDS011;63664;44.868;40.600;2022-10-31T04:26:00;2.38;;;1.33;;
75087;SDS011;63664;44.868;40.600;2022-10-31T04:28:28;3.05;;;1.00;;
75087;SDS011;63664;44.868;40.600;2022-10-31T04:30:58;2.63;;;1.40;;
75087;SDS011;63664;44.868;40.600;2022-10-31T04:33:27;1.50;;;1.00;;
75087;SDS011;63664;44.868;40.600;2022-10-31T04:35:54;1.45;;;0.82;;
75087;SDS011;63664;44.868;40.600;2022-10-31T04:38:21;1.40;;;1.10;;
75087;SDS011;63664;44.868;40.600;2022-10-31T04:40:48;1.95;;;1.13;;
75087;SDS011;63664;44.868;40.600;2022-10-31T04:43:45;2.08;;;1.17;;
75087;SDS011;63664;44.868;40.600;2022-10-31T04:46:13;1.60;;;1.20;;
75087;SDS011;63664;44.868;40.600;2022-10-31T04:48:39;1.70;;;1.23;;
75087;SDS011;63664;44.868;40.600;2022-10-31T04:51:06;2.20;;;1.25;;
75087;SDS011;63664;44.868;40.600;2022-10-31T04:53:33;2.85;;;1.08;;
75087;SDS011;63664;44.868;40.600;2022-10-31T04:56:18;2.70;;;1.67;;
75087;SDS011;63664;44.868;40.600;2022-10-31T04:58:47;2.22;;;1.40;;
75087;SDS011;63664;44.868;40.600;2022-10-31T05:01:13;2.75;;;1.67;;
75087;SDS011;63664;44.868;40.600;2022-10-31T05:03:39;2.45;;;1.63;;
75087;SDS011;63664;44.868;40.600;2022-10-31T05:06:06;3.08;;;1.98;;
75087;SDS011;63664;44.868;40.600;2022-10-31T05:08:34;4.35;;;2.60;;
75087;SDS011;63664;44.868;40.600;2022-10-31T05:11:04;3.40;;;2.13;;
75087;SDS011;63664;44.868;40.600;2022-10-31T05:13:32;4.20;;;2.63;;
75087;SDS011;63664;44.868;40.600;2022-10-31T05:16:25;5.35;;;2.75;;
75087;SDS011;63664;44.868;40.600;2022-10-31T05:19:10;5.32;;;3.58;;
75087;SDS011;63664;44.868;40.600;2022-10-31T05:21:55;4.65;;;3.10;;
75087;SDS011;63664;44.868;40.600;2022-10-31T05:24:22;6.00;;;2.85;;
75087;SDS011;63664;44.868;40.600;2022-10-31T05:26:48;3.63;;;2.55;;
75087;SDS011;63664;44.868;40.600;2022-10-31T05:29:17;6.07;;;2.65;;
75087;SDS011;63664;44.868;40.600;2022-10-31T05:31:43;4.28;;;2.63;;
75087;SDS011;63664;44.868;40.600;2022-10-31T05:34:23;3.88;;;2.70;;
75087;SDS011;63664;44.868;40.600;2022-10-31T05:37:14;7.25;;;2.45;;
75087;SDS011;63664;44.868;40.600;2022-10-31T05:39:41;3.17;;;2.40;;
75087;SDS011;63664;44.868;40.600;2022-10-31T05:42:16;4.75;;;2.55;;
75087;SDS011;63664;44.868;40.600;2022-10-31T05:44:42;3.75;;;2.45;;
75087;SDS011;63664;44.868;40.600;2022-10-31T05:47:31;4.88;;;2.95;;
75087;SDS011;63664;44.868;40.600;2022-10-31T05:50:18;4.57;;;2.78;;
75087;SDS011;63664;44.868;40.600;2022-10-31T05:52:53;5.80;;;2.88;;
75087;SDS011;63664;44.868;40.600;2022-10-31T05:55:35;9.93;;;3.20;;
75087;SDS011;63664;44.868;40.600;2022-10-31T05:58:07;6.93;;;3.38;;
75087;SDS011;63664;44.868;40.600;2022-10-31T06:00:36;6.55;;;2.90;;
75087;SDS011;63664;44.868;40.600;2022-10-31T06:03:10;3.58;;;3.13;;
75087;SDS011;63664;44.868;40.600;2022-10-31T06:05:57;5.60;;;3.20;;
75087;SDS011;63664;44.868;40.600;2022-10-31T06:08:29;6.15;;;3.80;;
75087;SDS011;63664;44.868;40.600;2022-10-31T06:11:00;6.28;;;3.30;;
